sensor_id;sensor_type;location;lat;lon;timestamp;P1;durP1;ratioP1;P2;durP2;ratioP2
46637;SDS011;32365;46.938;7.390;2022-07-12T06:41:11;2.03;;;1.10;;
46637;SDS011;32365;46.938;7.390;2022-07-12T06:43:38;1.05;;;1.00;;
46637;SDS011;32365;46.938;7.390;2022-07-12T06:46:05;2.75;;;1.10;;
46637;SDS011;32365;46.938;7.390;2022-07-12T06:48:31;0.90;;;0.90;;
46637;SDS011;32365;46.938;7.390;2022-07-12T06:50:58;1.30;;;1.20;;
46637;SDS011;32365;46.938;7.390;2022-07-12T06:53:25;2.42;;;1.17;;
46637;SDS011;32365;46.938;7.390;2022-07-12T06:55:51;1.00;;;0.82;;
46637;SDS011;32365;46.938;7.390;2022-07-12T06:58:19;1.00;;;1.00;;
46637;SDS011;32365;46.938;7.390;2022-07-12T07:00:46;3.03;;;1.30;;
46637;SDS011;32365;46.938;7.390;2022-07-12T07:03:14;1.17;;;1.10;;
46637;SDS011;32365;46.938;7.390;2022-07-12T07:05:40;1.15;;;0.95;;
46637;SDS011;32365;46.938;7.390;2022-07-12T07:08:07;1.17;;;1.10;;
46637;SDS011;32365;46.938;7.390;2022-07-12T07:10:34;1.02;;;1.00;;
46637;SDS011;32365;46.938;7.390;2022-07-12T07:13:00;2.65;;;1.10;;
46637;SDS011;32365;46.938;7.390;2022-07-12T07:15:28;0.90;;;0.90;;
46637;SDS011;32365;46.938;7.390;2022-07-12T07:17:55;1.45;;;1.20;;
46637;SDS011;32365;46.938;7.390;2022-07-12T07:20:22;1.10;;;1.00;;
46637;SDS011;32365;46.938;7.390;2022-07-12T07:22:50;1.30;;;1.20;;
46637;SDS011;32365;46.938;7.390;2022-07-12T07:25:17;1.02;;;1.02;;
46637;SDS011;32365;46.938;7.390;2022-07-12T07:27:43;5.13;;;1.30;;
46637;SDS011;32365;46.938;7.390;2022-07-12T07:30:11;6.93;;;1.20;;
46637;SDS011;32365;46.938;7.390;2022-07-12T07:32:56;1.33;;;1.20;;
46637;SDS011;32365;46.938;7.390;2022-07-12T07:35:23;1.52;;;1.20;;
46637;SDS011;32365;46.938;7.390;2022-07-12T07:37:50;6.50;;;1.20;;
46637;SDS011;32365;46.938;7.390;2022-07-12T07:40:17;2.35;;;1.10;;
46637;SDS011;32365;46.938;7.390;2022-07-12T07:42:44;1.05;;;1.05;;
46637;SDS011;32365;46.938;7.390;2022-07-12T07:45:11;1.00;;;0.98;;
46637;SDS011;32365;46.938;7.390;2022-07-12T07:47:44;1.17;;;1.08;;
46637;SDS011;32365;46.938;7.390;2022-07-12T07:50:14;0.95;;;0.90;;
46637;SDS011;32365;46.938;7.390;2022-07-12T07:52:41;2.95;;;1.58;;
46637;SDS011;32365;46.938;7.390;2022-07-12T07:55:08;1.10;;;1.00;;
46637;SDS011;32365;46.938;7.390;2022-07-12T07:57:35;3.67;;;1.30;;
46637;SDS011;32365;46.938;7.390;2022-07-12T08:00:02;1.75;;;1.65;;
46637;SDS011;32365;46.938;7.390;2022-07-12T08:02:29;2.15;;;1.38;;
46637;SDS011;32365;46.938;7.390;2022-07-12T08:04:56;2.05;;;1.30;;
46637;SDS011;32365;46.938;7.390;2022-07-12T08:07:24;1.23;;;1.15;;
46637;SDS011;32365;46.938;7.390;2022-07-12T08:09:51;1.98;;;1.00;;
46637;SDS011;32365;46.938;7.390;2022-07-12T08:12:17;1.98;;;1.20;;
46637;SDS011;32365;46.938;7.390;2022-07-12T08:14:44;1.13;;;1.05;;
46637;SDS011;32365;46.938;7.390;2022-07-12T08:17:11;1.35;;;1.00;;
46637;SDS011;32365;46.938;7.390;2022-07-12T08:19:39;4.43;;;1.27;;
46637;SDS011;32365;46.938;7.390;2022-07-12T08:22:06;1.10;;;1.00;;
46637;SDS011;32365;46.938;7.390;2022-07-12T08:24:34;6.78;;;2.03;;
46637;SDS011;32365;46.938;7.390;2022-07-12T08:27:01;2.30;;;1.10;;
46637;SDS011;32365;46.938;7.390;2022-07-12T08:29:28;1.17;;;1.10;;
46637;SDS011;32365;46.938;7.390;2022-07-12T08:31:55;0.90;;;0.90;;
46637;SDS011;32365;46.938;7.390;2022-07-12T08:34:21;1.85;;;1.40;;
46637;SDS011;32365;46.938;7.390;2022-07-12T08:36:49;1.27;;;1.17;;
46637;SDS011;32365;46.938;7.390;2022-07-12T08:39:17;3.22;;;1.30;;
46637;SDS011;32365;46.938;7.390;2022-07-12T08:41:45;1.10;;;1.00;;
46637;SDS011;32365;46.938;7.390;2022-07-12T08:44:12;2.55;;;1.08;;
46637;SDS011;32365;46.938;7.390;2022-07-12T08:46:39;1.48;;;1.15;;
46637;SDS011;32365;46.938;7.390;2022-07-12T08:49:05;0.70;;;0.70;;
46637;SDS011;32365;46.938;7.390;2022-07-12T08:51:33;0.88;;;0.82;;
46637;SDS011;32365;46.938;7.390;2022-07-12T08:54:06;3.33;;;1.10;;
46637;SDS011;32365;46.938;7.390;2022-07-12T08:56:34;7.03;;;1.10;;
46637;SDS011;32365;46.938;7.390;2022-07-12T08:59:11;1.60;;;0.93;;
46637;SDS011;32365;46.938;7.390;2022-07-12T09:01:39;2.05;;;1.10;;
46637;SDS011;32365;46.938;7.390;2022-07-12T09:04:11;0.68;;;0.68;;
46637;SDS011;32365;46.938;7.390;2022-07-12T09:06:38;1.85;;;0.82;;
46637;SDS011;32365;46.938;7.390;2022-07-12T09:09:05;1.20;;;0.90;;
46637;SDS011;32365;46.938;7.390;2022-07-12T09:11:34;3.35;;;0.93;;
46637;SDS011;32365;46.938;7.390;2022-07-12T09:14:02;1.40;;;1.00;;
46637;SDS011;32365;46.938;7.390;2022-07-12T09:16:31;1.45;;;0.70;;
46637;SDS011;32365;46.938;7.390;2022-07-12T09:21:48;1.20;;;1.10;;
46637;SDS011;32365;46.938;7.390;2022-07-12T09:24:16;4.30;;;0.90;;
46637;SDS011;32365;46.938;7.390;2022-07-12T09:26:43;2.35;;;0.90;;
46637;SDS011;32365;46.938;7.390;2022-07-12T09:29:11;1.23;;;0.88;;
46637;SDS011;32365;46.938;7.390;2022-07-12T09:31:41;1.58;;;0.68;;
46637;SDS011;32365;46.938;7.390;2022-07-12T09:34:22;0.85;;;0.73;;
46637;SDS011;32365;46.938;7.390;2022-07-12T09:37:06;1.55;;;0.82;;
46637;SDS011;32365;46.938;7.390;2022-07-12T09:39:33;5.07;;;0.77;;
46637;SDS011;32365;46.938;7.390;2022-07-12T09:42:00;0.70;;;0.70;;
46637;SDS011;32365;46.938;7.390;2022-07-12T09:44:27;1.70;;;0.73;;
46637;SDS011;32365;46.938;7.390;2022-07-12T09:46:58;2.42;;;0.70;;
46637;SDS011;32365;46.938;7.390;2022-07-12T09:49:26;1.90;;;0.70;;
46637;SDS011;32365;46.938;7.390;2022-07-12T09:51:54;1.83;;;0.77;;
46637;SDS011;32365;46.938;7.390;2022-07-12T09:54:25;0.68;;;0.60;;
46637;SDS011;32365;46.938;7.390;2022-07-12T09:56:52;0.95;;;0.60;;
46637;SDS011;32365;46.938;7.390;2022-07-12T09:59:22;1.40;;;0.70;;
46637;SDS011;32365;46.938;7.390;2022-07-12T10:01:53;1.95;;;0.70;;
46637;SDS011;32365;46.938;7.390;2022-07-12T10:04:26;0.82;;;0.80;;
46637;SDS011;32365;46.938;7.390;2022-07-12T10:06:56;0.75;;;0.70;;
46637;SDS011;32365;46.938;7.390;2022-07-12T10:09:23;1.15;;;0.57;;
46637;SDS011;32365;46.938;7.390;2022-07-12T10:11:50;2.20;;;0.80;;
46637;SDS011;32365;46.938;7.390;2022-07-12T10:14:18;0.60;;;0.60;;
46637;SDS011;32365;46.938;7.390;2022-07-12T10:16:46;0.88;;;0.88;;
46637;SDS011;32365;46.938;7.390;2022-07-12T10:19:23;1.02;;;0.55;;
46637;SDS011;32365;46.938;7.390;2022-07-12T10:21:52;2.03;;;0.60;;
46637;SDS011;32365;46.938;7.390;2022-07-12T10:27:31;0.55;;;0.55;;
46637;SDS011;32365;46.938;7.390;2022-07-12T10:30:12;0.95;;;0.50;;
46637;SDS011;32365;46.938;7.390;2022-07-12T10:32:42;0.95;;;0.55;;
46637;SDS011;32365;46.938;7.390;2022-07-12T10:35:12;0.90;;;0.50;;
46637;SDS011;32365;46.938;7.390;2022-07-12T10:37:42;1.05;;;0.80;;
46637;SDS011;32365;46.938;7.390;2022-07-12T10:40:47;0.73;;;0.70;;
46637;SDS011;32365;46.938;7.390;2022-07-12T10:43:24;0.50;;;0.50;;
46637;SDS011;32365;46.938;7.390;2022-07-12T10:46:17;1.20;;;0.60;;
46637;SDS011;32365;46.938;7.390;2022-07-12T10:48:46;0.68;;;0.68;;
46637;SDS011;32365;46.938;7.390;2022-07-12T10:51:14;0.80;;;0.50;;
46637;SDS011;32365;46.938;7.390;2022-07-12T10:53:43;0.47;;;0.47;;
46637;SDS011;32365;46.938;7.390;2022-07-12T10:56:17;0.73;;;0.50;;
46637;SDS011;32365;46.938;7.390;2022-07-12T10:58:47;0.57;;;0.57;;
46637;SDS011;32365;46.938;7.390;2022-07-12T11:03:44;0.50;;;0.50;;
46637;SDS011;32365;46.938;7.390;2022-07-12T11:06:13;2.28;;;0.57;;
46637;SDS011;32365;46.938;7.390;2022-07-12T11:08:52;0.60;;;0.60;;
46637;SDS011;32365;46.938;7.390;2022-07-12T11:11:20;1.23;;;0.57;;
46637;SDS011;32365;46.938;7.390;2022-07-12T11:13:48;0.40;;;0.40;;
46637;SDS011;32365;46.938;7.390;2022-07-12T11:16:17;0.90;;;0.40;;
46637;SDS011;32365;46.938;7.390;2022-07-12T11:18:45;3.00;;;0.52;;
46637;SDS011;32365;46.938;7.390;2022-07-12T11:21:12;0.68;;;0.40;;
46637;SDS011;32365;46.938;7.390;2022-07-12T11:23:39;0.50;;;0.50;;
46637;SDS011;32365;46.938;7.390;2022-07-12T11:26:11;2.97;;;0.47;;
46637;SDS011;32365;46.938;7.390;2022-07-12T11:28:39;3.80;;;0.70;;
46637;SDS011;32365;46.938;7.390;2022-07-12T11:31:07;0.75;;;0.60;;
46637;SDS011;32365;46.938;7.390;2022-07-12T11:33:37;3.70;;;0.85;;
46637;SDS011;32365;46.938;7.390;2022-07-12T11:36:05;0.55;;;0.43;;
46637;SDS011;32365;46.938;7.390;2022-07-12T11:38:33;3.00;;;0.50;;
46637;SDS011;32365;46.938;7.390;2022-07-12T11:41:01;5.97;;;0.70;;
46637;SDS011;32365;46.938;7.390;2022-07-12T11:43:31;4.38;;;0.50;;
46637;SDS011;32365;46.938;7.390;2022-07-12T11:45:58;1.33;;;0.45;;
46637;SDS011;32365;46.938;7.390;2022-07-12T11:48:27;0.57;;;0.50;;
46637;SDS011;32365;46.938;7.390;2022-07-12T11:50:54;0.40;;;0.40;;
46637;SDS011;32365;46.938;7.390;2022-07-12T11:53:22;0.50;;;0.50;;
46637;SDS011;32365;46.938;7.390;2022-07-12T11:55:50;3.72;;;0.70;;
46637;SDS011;32365;46.938;7.390;2022-07-12T11:58:18;0.50;;;0.50;;
46637;SDS011;32365;46.938;7.390;2022-07-12T12:00:47;0.75;;;0.50;;
46637;SDS011;32365;46.938;7.390;2022-07-12T12:03:15;0.77;;;0.40;;
46637;SDS011;32365;46.938;7.390;2022-07-12T12:05:43;0.30;;;0.30;;
46637;SDS011;32365;46.938;7.390;2022-07-12T12:08:10;0.70;;;0.60;;
46637;SDS011;32365;46.938;7.390;2022-07-12T12:10:39;1.38;;;0.40;;
46637;SDS011;32365;46.938;7.390;2022-07-12T12:13:12;0.45;;;0.40;;
46637;SDS011;32365;46.938;7.390;2022-07-12T12:15:40;0.88;;;0.55;;
46637;SDS011;32365;46.938;7.390;2022-07-12T12:18:09;4.75;;;0.60;;
46637;SDS011;32365;46.938;7.390;2022-07-12T12:20:37;5.65;;;0.75;;
46637;SDS011;32365;46.938;7.390;2022-07-12T12:23:05;2.15;;;0.50;;
46637;SDS011;32365;46.938;7.390;2022-07-12T12:25:33;13.25;;;1.15;;
46637;SDS011;32365;46.938;7.390;2022-07-12T12:28:01;2.92;;;0.70;;
46637;SDS011;32365;46.938;7.390;2022-07-12T12:30:29;8.07;;;0.75;;
46637;SDS011;32365;46.938;7.390;2022-07-12T12:32:58;0.65;;;0.65;;
46637;SDS011;32365;46.938;7.390;2022-07-12T12:35:31;7.88;;;1.10;;
46637;SDS011;32365;46.938;7.390;2022-07-12T12:37:59;0.50;;;0.43;;
46637;SDS011;32365;46.938;7.390;2022-07-12T12:40:27;2.33;;;0.55;;
46637;SDS011;32365;46.938;7.390;2022-07-12T12:43:04;0.95;;;0.50;;
46637;SDS011;32365;46.938;7.390;2022-07-12T12:45:32;0.65;;;0.50;;
46637;SDS011;32365;46.938;7.390;2022-07-12T12:48:01;3.20;;;0.50;;
46637;SDS011;32365;46.938;7.390;2022-07-12T12:50:40;0.95;;;0.50;;
46637;SDS011;32365;46.938;7.390;2022-07-12T12:53:11;2.20;;;0.60;;
46637;SDS011;32365;46.938;7.390;2022-07-12T12:55:40;0.50;;;0.50;;
46637;SDS011;32365;46.938;7.390;2022-07-12T12:58:08;0.40;;;0.40;;
46637;SDS011;32365;46.938;7.390;2022-07-12T13:00:36;0.50;;;0.50;;
46637;SDS011;32365;46.938;7.390;2022-07-12T13:03:04;0.40;;;0.40;;
46637;SDS011;32365;46.938;7.390;2022-07-12T13:05:32;0.40;;;0.40;;
46637;SDS011;32365;46.938;7.390;2022-07-12T13:08:00;3.95;;;0.40;;
46637;SDS011;32365;46.938;7.390;2022-07-12T13:10:28;1.05;;;0.75;;
46637;SDS011;32365;46.938;7.390;2022-07-12T13:12:56;0.75;;;0.60;;
46637;SDS011;32365;46.938;7.390;2022-07-12T13:15:24;0.45;;;0.45;;
46637;SDS011;32365;46.938;7.390;2022-07-12T13:17:51;3.08;;;0.57;;
46637;SDS011;32365;46.938;7.390;2022-07-12T13:20:18;0.55;;;0.40;;
46637;SDS011;32365;46.938;7.390;2022-07-12T13:22:45;0.50;;;0.50;;
46637;SDS011;32365;46.938;7.390;2022-07-12T13:25:13;0.73;;;0.45;;
46637;SDS011;32365;46.938;7.390;2022-07-12T13:27:41;0.60;;;0.40;;
46637;SDS011;32365;46.938;7.390;2022-07-12T13:30:09;2.92;;;0.57;;
46637;SDS011;32365;46.938;7.390;2022-07-12T13:32:38;0.63;;;0.35;;
46637;SDS011;32365;46.938;7.390;2022-07-12T13:35:05;0.38;;;0.38;;
46637;SDS011;32365;46.938;7.390;2022-07-12T13:37:33;0.43;;;0.40;;
46637;SDS011;32365;46.938;7.390;2022-07-12T13:40:00;0.77;;;0.38;;
46637;SDS011;32365;46.938;7.390;2022-07-12T13:42:45;2.53;;;0.50;;
46637;SDS011;32365;46.938;7.390;2022-07-12T13:47:40;0.20;;;0.20;;
46637;SDS011;32365;46.938;7.390;2022-07-12T13:50:08;0.88;;;0.30;;
46637;SDS011;32365;46.938;7.390;2022-07-12T13:52:36;0.90;;;0.30;;
46637;SDS011;32365;46.938;7.390;2022-07-12T13:55:03;0.45;;;0.40;;
46637;SDS011;32365;46.938;7.390;2022-07-12T13:57:30;0.52;;;0.40;;
46637;SDS011;32365;46.938;7.390;2022-07-12T13:59:59;0.68;;;0.60;;
46637;SDS011;32365;46.938;7.390;2022-07-12T14:02:26;2.92;;;0.50;;
46637;SDS011;32365;46.938;7.390;2022-07-12T14:04:53;0.50;;;0.50;;
46637;SDS011;32365;46.938;7.390;2022-07-12T14:07:20;0.70;;;0.40;;
46637;SDS011;32365;46.938;7.390;2022-07-12T14:09:47;1.33;;;0.40;;
46637;SDS011;32365;46.938;7.390;2022-07-12T14:12:15;0.40;;;0.40;;
46637;SDS011;32365;46.938;7.390;2022-07-12T14:14:41;0.20;;;0.20;;
46637;SDS011;32365;46.938;7.390;2022-07-12T14:17:32;0.30;;;0.30;;
46637;SDS011;32365;46.938;7.390;2022-07-12T14:19:59;0.47;;;0.47;;
46637;SDS011;32365;46.938;7.390;2022-07-12T14:22:26;0.30;;;0.30;;
46637;SDS011;32365;46.938;7.390;2022-07-12T14:24:53;0.40;;;0.40;;
46637;SDS011;32365;46.938;7.390;2022-07-12T14:27:20;0.20;;;0.20;;
46637;SDS011;32365;46.938;7.390;2022-07-12T14:29:47;0.28;;;0.28;;
46637;SDS011;32365;46.938;7.390;2022-07-12T14:32:14;0.73;;;0.40;;
46637;SDS011;32365;46.938;7.390;2022-07-12T14:34:42;0.75;;;0.40;;
46637;SDS011;32365;46.938;7.390;2022-07-12T14:37:09;0.50;;;0.50;;
46637;SDS011;32365;46.938;7.390;2022-07-12T14:39:36;0.77;;;0.43;;
46637;SDS011;32365;46.938;7.390;2022-07-12T14:42:03;0.50;;;0.32;;
46637;SDS011;32365;46.938;7.390;2022-07-12T14:44:30;0.73;;;0.40;;
46637;SDS011;32365;46.938;7.390;2022-07-12T14:46:57;0.40;;;0.40;;
46637;SDS011;32365;46.938;7.390;2022-07-12T14:49:24;0.50;;;0.40;;
46637;SDS011;32365;46.938;7.390;2022-07-12T14:51:52;0.43;;;0.40;;
46637;SDS011;32365;46.938;7.390;2022-07-12T14:54:18;0.40;;;0.30;;
46637;SDS011;32365;46.938;7.390;2022-07-12T14:56:45;0.32;;;0.32;;
46637;SDS011;32365;46.938;7.390;2022-07-12T14:59:12;0.68;;;0.68;;
46637;SDS011;32365;46.938;7.390;2022-07-12T15:01:39;0.75;;;0.40;;
46637;SDS011;32365;46.938;7.390;2022-07-12T15:04:06;0.70;;;0.40;;
46637;SDS011;32365;46.938;7.390;2022-07-12T15:06:32;2.47;;;0.52;;
46637;SDS011;32365;46.938;7.390;2022-07-12T15:09:00;0.40;;;0.35;;
46637;SDS011;32365;46.938;7.390;2022-07-12T15:11:27;0.30;;;0.30;;
46637;SDS011;32365;46.938;7.390;2022-07-12T15:13:54;0.45;;;0.40;;
46637;SDS011;32365;46.938;7.390;2022-07-12T15:16:20;0.30;;;0.30;;
46637;SDS011;32365;46.938;7.390;2022-07-12T15:18:47;0.32;;;0.32;;
46637;SDS011;32365;46.938;7.390;2022-07-12T15:21:14;1.95;;;0.50;;
46637;SDS011;32365;46.938;7.390;2022-07-12T15:23:41;0.70;;;0.47;;
46637;SDS011;32365;46.938;7.390;2022-07-12T15:26:09;0.35;;;0.35;;
46637;SDS011;32365;46.938;7.390;2022-07-12T15:28:52;0.93;;;0.88;;
46637;SDS011;32365;46.938;7.390;2022-07-12T15:31:20;5.95;;;0.40;;
46637;SDS011;32365;46.938;7.390;2022-07-12T15:33:48;2.17;;;0.40;;
46637;SDS011;32365;46.938;7.390;2022-07-12T15:36:15;0.40;;;0.40;;
46637;SDS011;32365;46.938;7.390;2022-07-12T15:38:42;0.40;;;0.40;;
46637;SDS011;32365;46.938;7.390;2022-07-12T15:41:10;1.23;;;0.50;;
46637;SDS011;32365;46.938;7.390;2022-07-12T15:43:37;0.30;;;0.30;;
46637;SDS011;32365;46.938;7.390;2022-07-12T15:46:05;0.40;;;0.40;;
46637;SDS011;32365;46.938;7.390;2022-07-12T15:48:32;0.40;;;0.30;;
46637;SDS011;32365;46.938;7.390;2022-07-12T15:50:58;0.70;;;0.30;;
46637;SDS011;32365;46.938;7.390;2022-07-12T15:53:25;0.40;;;0.40;;
46637;SDS011;32365;46.938;7.390;2022-07-12T15:55:52;2.08;;;0.55;;
46637;SDS011;32365;46.938;7.390;2022-07-12T15:58:21;0.30;;;0.30;;
46637;SDS011;32365;46.938;7.390;2022-07-12T16:00:49;1.30;;;0.93;;
46637;SDS011;32365;46.938;7.390;2022-07-12T16:03:16;0.60;;;0.50;;
46637;SDS011;32365;46.938;7.390;2022-07-12T16:05:43;0.40;;;0.40;;
46637;SDS011;32365;46.938;7.390;2022-07-12T16:08:10;1.58;;;0.40;;
46637;SDS011;32365;46.938;7.390;2022-07-12T16:10:36;0.50;;;0.50;;
46637;SDS011;32365;46.938;7.390;2022-07-12T16:13:04;0.40;;;0.40;;
46637;SDS011;32365;46.938;7.390;2022-07-12T16:15:32;0.57;;;0.57;;
46637;SDS011;32365;46.938;7.390;2022-07-12T16:17:59;0.90;;;0.80;;
46637;SDS011;32365;46.938;7.390;2022-07-12T16:20:26;0.40;;;0.40;;
46637;SDS011;32365;46.938;7.390;2022-07-12T16:22:53;0.55;;;0.40;;
46637;SDS011;32365;46.938;7.390;2022-07-12T16:25:20;0.75;;;0.75;;
46637;SDS011;32365;46.938;7.390;2022-07-12T16:27:47;0.60;;;0.50;;
46637;SDS011;32365;46.938;7.390;2022-07-12T16:30:14;0.40;;;0.40;;
46637;SDS011;32365;46.938;7.390;2022-07-12T16:32:43;0.88;;;0.45;;
46637;SDS011;32365;46.938;7.390;2022-07-12T16:35:10;0.50;;;0.50;;
46637;SDS011;32365;46.938;7.390;2022-07-12T16:37:36;0.50;;;0.50;;
46637;SDS011;32365;46.938;7.390;2022-07-12T16:40:04;1.58;;;0.70;;
46637;SDS011;32365;46.938;7.390;2022-07-12T16:42:32;1.95;;;0.60;;
46637;SDS011;32365;46.938;7.390;2022-07-12T16:44:59;1.83;;;1.50;;
46637;SDS011;32365;46.938;7.390;2022-07-12T16:47:25;1.10;;;1.00;;
46637;SDS011;32365;46.938;7.390;2022-07-12T16:49:53;0.95;;;0.50;;
46637;SDS011;32365;46.938;7.390;2022-07-12T16:52:20;0.75;;;0.75;;
46637;SDS011;32365;46.938;7.390;2022-07-12T16:54:47;0.50;;;0.50;;
46637;SDS011;32365;46.938;7.390;2022-07-12T16:57:14;0.90;;;0.90;;
46637;SDS011;32365;46.938;7.390;2022-07-12T16:59:40;1.30;;;1.20;;
46637;SDS011;32365;46.938;7.390;2022-07-12T17:02:07;1.05;;;0.57;;
46637;SDS011;32365;46.938;7.390;2022-07-12T17:04:34;2.25;;;0.35;;
46637;SDS011;32365;46.938;7.390;2022-07-12T17:07:02;0.57;;;0.57;;
46637;SDS011;32365;46.938;7.390;2022-07-12T17:09:28;1.52;;;0.70;;
46637;SDS011;32365;46.938;7.390;2022-07-12T17:11:55;0.60;;;0.60;;
46637;SDS011;32365;46.938;7.390;2022-07-12T17:14:22;0.65;;;0.55;;
46637;SDS011;32365;46.938;7.390;2022-07-12T17:16:49;0.98;;;0.80;;
46637;SDS011;32365;46.938;7.390;2022-07-12T17:19:15;0.70;;;0.60;;
46637;SDS011;32365;46.938;7.390;2022-07-12T17:21:42;0.50;;;0.50;;
46637;SDS011;32365;46.938;7.390;2022-07-12T17:24:10;4.53;;;0.80;;
46637;SDS011;32365;46.938;7.390;2022-07-12T17:26:37;0.60;;;0.55;;
46637;SDS011;32365;46.938;7.390;2022-07-12T17:29:04;2.38;;;0.98;;
46637;SDS011;32365;46.938;7.390;2022-07-12T17:31:31;0.60;;;0.60;;
46637;SDS011;32365;46.938;7.390;2022-07-12T17:33:58;2.10;;;1.05;;
46637;SDS011;32365;46.938;7.390;2022-07-12T17:36:25;0.68;;;0.68;;
46637;SDS011;32365;46.938;7.390;2022-07-12T17:38:52;3.70;;;0.50;;
46637;SDS011;32365;46.938;7.390;2022-07-12T17:41:20;0.60;;;0.60;;
46637;SDS011;32365;46.938;7.390;2022-07-12T17:43:47;1.17;;;0.85;;
46637;SDS011;32365;46.938;7.390;2022-07-12T17:46:13;0.65;;;0.52;;
46637;SDS011;32365;46.938;7.390;2022-07-12T17:48:40;0.63;;;0.63;;
46637;SDS011;32365;46.938;7.390;2022-07-12T17:51:07;3.50;;;0.60;;
46637;SDS011;32365;46.938;7.390;2022-07-12T17:53:34;0.50;;;0.50;;
46637;SDS011;32365;46.938;7.390;2022-07-12T17:56:01;0.60;;;0.50;;
46637;SDS011;32365;46.938;7.390;2022-07-12T17:58:29;1.02;;;0.52;;
46637;SDS011;32365;46.938;7.390;2022-07-12T18:01:05;2.33;;;0.73;;
46637;SDS011;32365;46.938;7.390;2022-07-12T18:03:33;0.60;;;0.60;;
46637;SDS011;32365;46.938;7.390;2022-07-12T18:06:00;0.70;;;0.70;;
46637;SDS011;32365;46.938;7.390;2022-07-12T18:08:27;0.52;;;0.52;;
46637;SDS011;32365;46.938;7.390;2022-07-12T18:10:54;0.82;;;0.60;;
46637;SDS011;32365;46.938;7.390;2022-07-12T18:13:21;0.80;;;0.80;;
46637;SDS011;32365;46.938;7.390;2022-07-12T18:16:06;0.50;;;0.50;;
46637;SDS011;32365;46.938;7.390;2022-07-12T18:18:33;1.25;;;0.70;;
46637;SDS011;32365;46.938;7.390;2022-07-12T18:21:00;0.60;;;0.60;;
46637;SDS011;32365;46.938;7.390;2022-07-12T18:23:27;0.80;;;0.80;;
46637;SDS011;32365;46.938;7.390;2022-07-12T18:25:53;1.02;;;0.70;;
46637;SDS011;32365;46.938;7.390;2022-07-12T18:28:20;0.73;;;0.70;;
46637;SDS011;32365;46.938;7.390;2022-07-12T18:30:47;0.70;;;0.70;;
46637;SDS011;32365;46.938;7.390;2022-07-12T18:33:15;0.68;;;0.60;;
46637;SDS011;32365;46.938;7.390;2022-07-12T18:35:42;1.25;;;0.60;;
46637;SDS011;32365;46.938;7.390;2022-07-12T18:38:09;0.60;;;0.60;;
46637;SDS011;32365;46.938;7.390;2022-07-12T18:40:36;1.52;;;0.90;;
46637;SDS011;32365;46.938;7.390;2022-07-12T18:43:03;0.90;;;0.80;;
46637;SDS011;32365;46.938;7.390;2022-07-12T18:45:30;0.50;;;0.50;;
46637;SDS011;32365;46.938;7.390;2022-07-12T18:47:57;0.63;;;0.63;;
46637;SDS011;32365;46.938;7.390;2022-07-12T18:50:25;1.85;;;0.80;;
46637;SDS011;32365;46.938;7.390;2022-07-12T18:52:51;1.77;;;0.88;;
46637;SDS011;32365;46.938;7.390;2022-07-12T18:55:18;0.95;;;0.50;;
46637;SDS011;32365;46.938;7.390;2022-07-12T18:57:45;0.63;;;0.63;;
46637;SDS011;32365;46.938;7.390;2022-07-12T19:00:12;0.55;;;0.50;;
46637;SDS011;32365;46.938;7.390;2022-07-12T19:02:39;1.38;;;0.80;;
46637;SDS011;32365;46.938;7.390;2022-07-12T19:05:06;0.80;;;0.80;;
46637;SDS011;32365;46.938;7.390;2022-07-12T19:07:36;0.80;;;0.70;;
46637;SDS011;32365;46.938;7.390;2022-07-12T19:10:03;0.82;;;0.82;;
46637;SDS011;32365;46.938;7.390;2022-07-12T19:12:31;0.57;;;0.57;;
46637;SDS011;32365;46.938;7.390;2022-07-12T19:15:00;0.80;;;0.80;;
46637;SDS011;32365;46.938;7.390;2022-07-12T19:17:26;0.60;;;0.60;;
46637;SDS011;32365;46.938;7.390;2022-07-12T19:19:53;0.85;;;0.70;;
46637;SDS011;32365;46.938;7.390;2022-07-12T19:22:20;1.00;;;0.98;;
46637;SDS011;32365;46.938;7.390;2022-07-12T19:24:49;2.78;;;1.27;;
46637;SDS011;32365;46.938;7.390;2022-07-12T19:27:16;1.20;;;0.80;;
46637;SDS011;32365;46.938;7.390;2022-07-12T19:29:43;0.65;;;0.60;;
46637;SDS011;32365;46.938;7.390;2022-07-12T19:32:10;0.80;;;0.80;;
46637;SDS011;32365;46.938;7.390;2022-07-12T19:34:37;2.85;;;0.90;;
46637;SDS011;32365;46.938;7.390;2022-07-12T19:37:06;4.90;;;0.82;;
46637;SDS011;32365;46.938;7.390;2022-07-12T19:39:33;2.05;;;0.95;;
46637;SDS011;32365;46.938;7.390;2022-07-12T19:42:02;0.80;;;0.70;;
46637;SDS011;32365;46.938;7.390;2022-07-12T19:44:29;7.15;;;1.58;;
46637;SDS011;32365;46.938;7.390;2022-07-12T19:46:55;0.65;;;0.65;;
46637;SDS011;32365;46.938;7.390;2022-07-12T19:49:22;0.80;;;0.80;;
